createdAt,value
2023-03-29T00:00:38.705Z,750.4615
2023-03-29T00:01:40.139Z,766.3846
2023-03-29T00:02:53.386Z,724.4545
2023-03-29T00:03:43.066Z,746.2727
2023-03-29T00:04:44.436Z,771.8461
2023-03-29T00:05:45.945Z,751.6154
2023-03-29T00:06:47.284Z,761.9231
2023-03-29T00:07:48.729Z,771.6154
2023-03-29T00:08:50.167Z,747.7692
2023-03-29T00:09:51.563Z,753.4615
2023-03-29T00:10:52.998Z,781.3077
2023-03-29T00:11:54.422Z,766.0769
2023-03-29T00:12:55.848Z,767.3077
2023-03-29T00:13:57.298Z,772.1539
2023-03-29T00:14:58.722Z,764.2308
2023-03-29T00:16:00.145Z,759.3846
2023-03-29T00:17:01.613Z,779.2308
2023-03-29T00:18:02.999Z,772.6923
2023-03-29T00:19:04.443Z,760.1539
2023-03-29T00:20:05.854Z,785.4615
2023-03-29T00:21:07.302Z,780.7692
2023-03-29T00:22:08.741Z,781.4615
2023-03-29T00:23:10.171Z,789.2308
2023-03-29T00:24:11.560Z,744.2308
2023-03-29T00:25:13.074Z,731.8461
2023-03-29T00:26:14.489Z,751.3846
2023-03-29T00:27:15.889Z,749.1539
2023-03-29T00:28:17.336Z,727.6154
2023-03-29T00:29:18.801Z,753.3846
2023-03-29T00:30:20.159Z,763.6154
2023-03-29T00:31:21.646Z,769.6154
2023-03-29T00:32:23.051Z,792.2308
2023-03-29T00:33:24.475Z,806.9231
2023-03-29T00:34:25.899Z,827.5385
2023-03-29T00:35:27.360Z,826.6154
2023-03-29T00:36:28.771Z,826.9231
2023-03-29T00:37:30.217Z,848.0769
2023-03-29T00:38:31.773Z,861.2308
2023-03-29T00:39:33.032Z,850.1818
2023-03-29T00:40:34.466Z,850.5385
2023-03-29T00:41:35.914Z,857.0769
2023-03-29T00:42:37.363Z,868.3846
2023-03-29T00:43:38.749Z,828.9231
2023-03-29T00:44:40.171Z,857.5385
2023-03-29T00:45:41.588Z,855.2308
2023-03-29T00:46:43.117Z,852.3077
2023-03-29T00:47:44.542Z,834.3077
2023-03-29T00:48:45.922Z,834.9231
2023-03-29T00:49:47.300Z,839.2308
2023-03-29T00:50:48.772Z,828.4615
2023-03-29T00:51:50.177Z,860.1539
2023-03-29T00:52:51.602Z,842.1539
2023-03-29T00:53:53.032Z,839.0769
2023-03-29T00:54:54.457Z,828.0000
2023-03-29T00:55:55.886Z,816.4615
2023-03-29T00:56:57.430Z,822.6154
2023-03-29T00:57:58.742Z,808.0769
2023-03-29T00:59:00.172Z,816.3077
2023-03-29T01:00:01.609Z,836.9231
2023-03-29T01:01:03.316Z,821.8461
2023-03-29T01:02:04.503Z,838.6923
2023-03-29T01:03:05.961Z,822.4615
2023-03-29T01:04:07.312Z,818.4615
2023-03-29T01:05:08.719Z,832.3077
2023-03-29T01:06:10.126Z,830.1539
2023-03-29T01:07:11.632Z,831.2308
2023-03-29T01:08:12.992Z,822.4615
2023-03-29T01:09:14.428Z,823.3846
2023-03-29T01:10:15.844Z,836.0000
2023-03-29T01:11:17.524Z,834.1539
2023-03-29T01:12:18.704Z,836.4615
2023-03-29T01:13:20.110Z,847.6923
2023-03-29T01:14:21.542Z,825.0769
2023-03-29T01:15:23.020Z,832.1539
2023-03-29T01:16:24.420Z,836.7692
2023-03-29T01:17:25.919Z,833.3846
2023-03-29T01:18:27.269Z,833.0769
2023-03-29T01:19:28.726Z,824.3077
2023-03-29T01:20:30.133Z,825.2308
2023-03-29T01:21:31.610Z,831.5385
2023-03-29T01:22:33.008Z,829.2308
2023-03-29T01:23:34.431Z,843.3077
2023-03-29T01:24:35.865Z,855.3077
2023-03-29T01:25:37.293Z,834.7692
2023-03-29T01:26:38.722Z,838.6154
2023-03-29T01:27:40.160Z,846.3846
2023-03-29T01:28:41.547Z,841.6154
2023-03-29T01:29:42.992Z,849.3077
2023-03-29T01:30:44.423Z,850.6923
2023-03-29T01:31:45.976Z,856.3077
2023-03-29T01:32:47.293Z,833.0769
2023-03-29T01:33:48.738Z,852.1539
2023-03-29T01:34:50.098Z,849.6923
2023-03-29T01:35:51.589Z,861.0000
2023-03-29T01:36:52.951Z,847.6154
2023-03-29T01:37:54.450Z,844.6154
2023-03-29T01:38:55.817Z,853.1539
2023-03-29T01:39:57.254Z,844.0000
2023-03-29T01:40:58.663Z,859.6154
2023-03-29T01:42:00.102Z,850.3077
2023-03-29T01:43:01.560Z,826.4615
2023-03-29T01:44:03.011Z,857.0769
2023-03-29T01:45:04.384Z,855.6154
2023-03-29T01:46:05.830Z,853.7692
2023-03-29T01:47:07.270Z,853.3846
2023-03-29T01:48:08.691Z,828.7692
2023-03-29T01:49:10.087Z,842.0000
2023-03-29T01:50:11.550Z,846.4615
2023-03-29T01:51:12.947Z,836.1539
2023-03-29T01:52:14.391Z,848.0000
2023-03-29T01:53:15.824Z,842.0000
2023-03-29T01:54:17.244Z,842.3077
2023-03-29T01:55:18.659Z,849.7692
2023-03-29T01:56:20.101Z,840.6154
2023-03-29T01:57:21.536Z,826.3077
2023-03-29T01:58:22.946Z,820.7692
2023-03-29T01:59:24.341Z,810.4615
2023-03-29T02:00:25.796Z,798.3077
2023-03-29T02:01:27.248Z,797.3846
2023-03-29T02:02:28.754Z,821.6154
2023-03-29T02:03:30.140Z,803.3077
2023-03-29T02:04:31.492Z,801.4615
2023-03-29T02:05:32.922Z,812.4615
2023-03-29T02:06:34.445Z,799.9231
2023-03-29T02:07:35.761Z,802.0769
2023-03-29T02:08:37.229Z,794.1539
2023-03-29T02:09:38.630Z,795.1539
2023-03-29T02:10:40.080Z,781.0769
2023-03-29T02:11:41.466Z,803.0769
2023-03-29T02:12:42.929Z,803.0769
2023-03-29T02:13:44.441Z,792.3846
2023-03-29T02:14:45.867Z,790.6154
2023-03-29T02:15:47.386Z,783.0000
2023-03-29T02:16:48.702Z,782.0000
2023-03-29T02:17:50.174Z,797.9231
2023-03-29T02:18:51.543Z,796.0769
2023-03-29T02:19:52.984Z,794.1539
2023-03-29T02:20:54.398Z,792.4615
2023-03-29T02:21:55.813Z,785.3846
2023-03-29T02:22:57.278Z,784.5385
2023-03-29T02:23:58.676Z,805.0769
2023-03-29T02:25:00.132Z,790.0000
2023-03-29T02:26:01.521Z,796.3846
2023-03-29T02:27:02.949Z,796.2308
2023-03-29T02:28:04.384Z,785.3077
2023-03-29T02:29:05.806Z,801.3846
2023-03-29T02:30:07.238Z,806.3077
2023-03-29T02:31:08.687Z,795.6923
2023-03-29T02:32:10.073Z,793.2308
2023-03-29T02:33:11.625Z,798.0769
2023-03-29T02:34:12.977Z,812.7692
2023-03-29T02:35:14.339Z,820.1539
2023-03-29T02:36:15.779Z,824.1539
2023-03-29T02:37:17.193Z,814.4615
2023-03-29T02:38:18.660Z,819.3846
2023-03-29T02:39:20.049Z,818.6154
2023-03-29T02:40:21.490Z,809.3077
2023-03-29T02:41:22.893Z,814.3077
2023-03-29T02:42:24.318Z,804.3846
2023-03-29T02:43:26.139Z,809.0769
2023-03-29T02:44:27.160Z,830.6154
2023-03-29T02:45:28.618Z,801.3077
2023-03-29T02:46:30.055Z,811.5385
2023-03-29T02:47:31.506Z,827.8461
2023-03-29T02:48:32.945Z,824.7692
2023-03-29T02:49:34.309Z,813.6923
2023-03-29T02:50:35.733Z,806.6923
2023-03-29T02:51:37.160Z,822.9231
2023-03-29T02:52:38.590Z,816.6154
2023-03-29T02:53:40.052Z,824.6154
2023-03-29T02:54:41.437Z,852.6154
2023-03-29T02:55:42.964Z,833.2308
2023-03-29T02:56:44.334Z,839.6923
2023-03-29T02:57:45.755Z,876.5385
2023-03-29T02:58:47.183Z,839.3846
2023-03-29T02:59:48.604Z,858.8461
2023-03-29T03:00:50.005Z,864.7692
2023-03-29T03:01:51.512Z,861.1539
2023-03-29T03:02:52.965Z,872.3846
2023-03-29T03:03:54.354Z,876.5385
2023-03-29T03:04:55.757Z,852.1539
2023-03-29T03:05:57.161Z,863.7692
2023-03-29T03:06:58.576Z,902.0769
2023-03-29T03:08:00.013Z,849.0000
2023-03-29T03:09:02.022Z,823.8461
2023-03-29T03:10:02.887Z,875.7692
2023-03-29T03:11:04.507Z,856.3077
2023-03-29T03:12:05.734Z,868.8461
2023-03-29T03:13:07.168Z,908.4615
2023-03-29T03:14:08.606Z,922.8461
2023-03-29T03:15:10.024Z,874.1539
2023-03-29T03:16:11.456Z,874.5385
2023-03-29T03:17:12.859Z,862.1539
2023-03-29T03:18:14.294Z,860.2308
2023-03-29T03:19:15.740Z,870.1539
2023-03-29T03:20:17.147Z,879.6154
2023-03-29T03:21:18.589Z,905.3077
2023-03-29T03:22:20.006Z,904.3077
2023-03-29T03:23:21.489Z,868.4615
2023-03-29T03:24:22.860Z,879.3077
2023-03-29T03:25:24.259Z,893.3846
2023-03-29T03:26:25.692Z,865.2308
2023-03-29T03:27:27.147Z,901.6154
2023-03-29T03:28:28.653Z,878.3077
2023-03-29T03:29:30.006Z,870.6154
2023-03-29T03:30:31.464Z,836.1539
2023-03-29T03:31:32.928Z,859.0769
2023-03-29T03:32:34.327Z,851.5385
2023-03-29T03:33:35.726Z,870.6923
2023-03-29T03:34:37.148Z,871.6923
2023-03-29T03:35:38.589Z,887.9231
2023-03-29T03:36:39.984Z,946.4615
2023-03-29T03:37:41.408Z,992.0769
2023-03-29T03:38:42.869Z,1016.5385
2023-03-29T03:39:44.274Z,1088.3077
2023-03-29T03:40:45.702Z,1103.2307
2023-03-29T03:41:47.155Z,1119.0769
2023-03-29T03:42:48.541Z,1101.2307
2023-03-29T03:43:49.970Z,1144.3077
2023-03-29T03:44:51.427Z,1163.5385
2023-03-29T03:45:52.927Z,1158.0000
2023-03-29T03:46:54.251Z,1162.3846
2023-03-29T03:47:55.675Z,1149.7693
2023-03-29T03:48:57.161Z,1142.6923
2023-03-29T03:49:58.534Z,1131.2307
2023-03-29T03:51:00.052Z,1126.3077
2023-03-29T03:52:01.389Z,1127.8462
2023-03-29T03:53:02.808Z,1114.9231
2023-03-29T03:54:04.292Z,1125.3846
2023-03-29T03:55:05.691Z,1104.1538
2023-03-29T03:56:07.090Z,1110.9231
2023-03-29T03:57:08.528Z,1094.7693
2023-03-29T03:58:09.962Z,1095.5385
2023-03-29T03:59:11.400Z,1080.8462
2023-03-29T04:00:12.804Z,1085.2307
2023-03-29T04:01:14.237Z,1086.5385
2023-03-29T04:02:15.735Z,1089.2307
2023-03-29T04:03:17.263Z,1087.3846
2023-03-29T04:04:18.552Z,1087.3846
2023-03-29T04:05:20.024Z,1109.8462
2023-03-29T04:06:21.363Z,1115.6923
2023-03-29T04:07:22.820Z,1095.7693
2023-03-29T04:08:24.233Z,1082.0769
2023-03-29T04:09:25.696Z,1080.1538
2023-03-29T04:10:27.100Z,1059.6923
2023-03-29T04:11:28.538Z,1074.2307
2023-03-29T04:12:29.981Z,1072.7693
2023-03-29T04:13:31.384Z,1076.3077
2023-03-29T04:14:32.808Z,1095.6923
2023-03-29T04:15:34.304Z,1057.0000
2023-03-29T04:16:35.663Z,1081.6923
2023-03-29T04:17:37.201Z,1088.6154
2023-03-29T04:18:38.593Z,1098.7693
2023-03-29T04:19:39.988Z,1102.7693
2023-03-29T04:20:41.376Z,1095.1538
2023-03-29T04:21:42.823Z,1097.8462
2023-03-29T04:22:44.325Z,1087.4615
2023-03-29T04:23:45.678Z,1088.3077
2023-03-29T04:24:47.100Z,1086.6154
2023-03-29T04:25:48.528Z,1087.0769
2023-03-29T04:26:49.958Z,1093.0769
2023-03-29T04:27:51.389Z,1097.3846
2023-03-29T04:28:52.797Z,1076.6154
2023-03-29T04:29:54.267Z,1094.7693
2023-03-29T04:30:55.658Z,1089.2307
2023-03-29T04:31:57.096Z,1086.4615
2023-03-29T04:32:58.606Z,1082.6154
2023-03-29T04:34:00.514Z,1069.8462
2023-03-29T04:35:01.441Z,1099.2307
2023-03-29T04:36:02.837Z,1097.0769
2023-03-29T04:37:04.220Z,1076.6923
2023-03-29T04:38:05.652Z,1098.0000
2023-03-29T04:39:07.104Z,1054.5385
2023-03-29T04:40:08.540Z,1086.4615
2023-03-29T04:41:10.963Z,1093.0000
2023-03-29T04:42:11.459Z,1072.7693
2023-03-29T04:43:12.804Z,1061.9231
2023-03-29T04:44:14.218Z,1067.3077
2023-03-29T04:45:15.722Z,1087.5385
2023-03-29T04:46:17.148Z,1063.4615
2023-03-29T04:47:18.500Z,1060.5385
2023-03-29T04:48:19.937Z,1072.1538
2023-03-29T04:49:21.802Z,1057.4615
2023-03-29T04:50:22.797Z,1065.5385
2023-03-29T04:51:24.237Z,1045.2307
2023-03-29T04:52:25.662Z,1058.6154
2023-03-29T04:53:27.080Z,1057.7693
2023-03-29T04:54:28.536Z,1048.2307
2023-03-29T04:55:29.925Z,1037.5385
2023-03-29T04:56:31.375Z,1053.0769
2023-03-29T04:57:32.793Z,1053.2307
2023-03-29T04:58:34.230Z,1028.0000
2023-03-29T04:59:35.664Z,973.6154
2023-03-29T05:00:37.090Z,988.2308
2023-03-29T05:01:42.738Z,987.0000
2023-03-29T05:02:39.316Z,841.5714
2023-03-29T05:03:41.365Z,621.5714
2023-03-29T05:04:42.873Z,554.3846
2023-03-29T05:05:44.211Z,461.5385
2023-03-29T05:06:45.632Z,369.0000
2023-03-29T05:07:47.083Z,297.4615
2023-03-29T05:08:48.471Z,217.6154
2023-03-29T05:09:49.924Z,213.0769
2023-03-29T05:10:51.325Z,471.4615
2023-03-29T05:11:52.772Z,592.3077
2023-03-29T05:12:54.461Z,562.0769
2023-03-29T05:13:55.633Z,501.6154
2023-03-29T05:14:57.013Z,552.2308
2023-03-29T05:15:58.490Z,648.8461
2023-03-29T05:16:59.905Z,824.2308
2023-03-29T05:18:01.374Z,880.5385
2023-03-29T05:19:02.755Z,829.9231
2023-03-29T05:20:04.182Z,887.7692
2023-03-29T05:21:05.613Z,954.8461
2023-03-29T05:22:07.044Z,936.6923
2023-03-29T05:23:08.426Z,916.3846
2023-03-29T05:24:09.909Z,884.3077
2023-03-29T05:25:11.318Z,796.8461
2023-03-29T05:26:12.729Z,705.3077
2023-03-29T05:27:14.181Z,705.3846
2023-03-29T05:28:15.589Z,680.1539
2023-03-29T05:29:17.017Z,650.3846
2023-03-29T05:30:18.433Z,548.5385
2023-03-29T05:31:19.919Z,518.5385
2023-03-29T05:32:22.097Z,532.6923
2023-03-29T05:33:22.749Z,498.1538
2023-03-29T05:34:24.155Z,516.2308
2023-03-29T05:35:25.545Z,529.8461
2023-03-29T05:36:26.993Z,543.9231
2023-03-29T05:37:28.404Z,560.1539
2023-03-29T05:38:29.829Z,564.4615
2023-03-29T05:39:31.253Z,569.0000
2023-03-29T05:40:32.725Z,565.1539
2023-03-29T05:41:34.116Z,563.8461
2023-03-29T05:42:35.552Z,562.3077
2023-03-29T05:43:37.000Z,555.6154
2023-03-29T05:44:38.454Z,580.4615
2023-03-29T05:45:39.818Z,626.0000
2023-03-29T05:46:41.305Z,591.2308
2023-03-29T05:47:42.847Z,567.9231
2023-03-29T05:48:44.079Z,576.6923
2023-03-29T05:49:45.639Z,582.6154
2023-03-29T05:50:47.040Z,578.8461
2023-03-29T05:51:48.377Z,573.3846
2023-03-29T05:52:49.783Z,583.8461
2023-03-29T05:53:51.215Z,598.5385
2023-03-29T05:54:52.633Z,588.2308
2023-03-29T05:55:54.106Z,574.4615
2023-03-29T05:56:55.534Z,569.6923
2023-03-29T05:57:56.925Z,568.1539
2023-03-29T05:58:58.363Z,562.6154
2023-03-29T05:59:59.818Z,570.0000
2023-03-29T06:01:01.479Z,572.3846
2023-03-29T06:02:02.737Z,593.5385
2023-03-29T06:03:17.651Z,619.0769
2023-03-29T06:04:05.504Z,622.0000
2023-03-29T06:05:06.996Z,625.7692
2023-03-29T06:06:08.343Z,628.3846
2023-03-29T06:07:09.785Z,636.8461
2023-03-29T06:08:11.210Z,635.6923
2023-03-29T06:09:12.628Z,644.9231
2023-03-29T06:10:14.064Z,634.1539
2023-03-29T06:11:15.468Z,643.6154
2023-03-29T06:12:16.931Z,647.3846
2023-03-29T06:13:18.328Z,642.9231
2023-03-29T06:14:19.755Z,644.6154
2023-03-29T06:15:21.313Z,629.1539
2023-03-29T06:16:22.765Z,620.4615
2023-03-29T06:17:24.219Z,620.2308
2023-03-29T06:18:25.565Z,613.5385
2023-03-29T06:19:26.974Z,622.9231
2023-03-29T06:20:28.400Z,615.3846
2023-03-29T06:21:29.829Z,609.0769
2023-03-29T06:22:31.250Z,612.2308
2023-03-29T06:23:32.666Z,614.0769
2023-03-29T06:24:34.087Z,604.7692
2023-03-29T06:25:35.514Z,581.1539
2023-03-29T06:26:36.962Z,559.1539
2023-03-29T06:27:38.377Z,562.0769
2023-03-29T06:28:39.782Z,528.6923
2023-03-29T06:29:41.249Z,538.0769
2023-03-29T06:30:42.642Z,535.6923
2023-03-29T06:31:44.154Z,509.9231
2023-03-29T06:32:45.554Z,498.2308
2023-03-29T06:33:46.965Z,488.3077
2023-03-29T06:34:48.362Z,482.1538
2023-03-29T06:35:49.907Z,471.3846
2023-03-29T06:36:51.202Z,443.2308
2023-03-29T06:37:52.644Z,441.0769
2023-03-29T06:38:54.082Z,426.0769
2023-03-29T06:39:55.505Z,421.1538
2023-03-29T06:40:56.948Z,399.7692
2023-03-29T06:41:58.351Z,378.1538
2023-03-29T06:42:59.762Z,364.2308
2023-03-29T06:44:01.218Z,309.3077
2023-03-29T06:45:02.666Z,303.2308
2023-03-29T06:46:04.138Z,284.7692
2023-03-29T06:47:05.577Z,299.3846
2023-03-29T06:48:06.972Z,297.2308
2023-03-29T06:49:08.350Z,304.3077
2023-03-29T06:50:09.798Z,295.8462
2023-03-29T06:51:11.201Z,304.3077
2023-03-29T06:52:12.665Z,316.5385
2023-03-29T06:53:14.060Z,324.2308
2023-03-29T06:54:15.469Z,330.8462
2023-03-29T06:55:16.878Z,338.5385
2023-03-29T06:56:18.335Z,349.4615
2023-03-29T06:57:19.848Z,358.3846
2023-03-29T06:58:21.175Z,366.6154
2023-03-29T06:59:22.628Z,365.4615
2023-03-29T07:00:24.038Z,389.2308
2023-03-29T07:01:25.486Z,362.1538
2023-03-29T07:02:26.947Z,368.0769
2023-03-29T07:03:28.319Z,379.0000
2023-03-29T07:04:29.831Z,405.2308
2023-03-29T07:05:31.174Z,382.3077
2023-03-29T07:06:32.605Z,381.6923
2023-03-29T07:07:34.028Z,384.8462
2023-03-29T07:08:35.442Z,374.8462
2023-03-29T07:09:36.874Z,364.9231
2023-03-29T07:10:38.357Z,370.6923
2023-03-29T07:11:39.747Z,379.2308
2023-03-29T07:12:41.146Z,380.2308
2023-03-29T07:13:42.807Z,389.0769
2023-03-29T07:14:46.242Z,391.2308
2023-03-29T07:15:45.425Z,397.6923
2023-03-29T07:16:47.104Z,398.3077
2023-03-29T07:17:48.289Z,403.6923
2023-03-29T07:18:49.701Z,405.0769
2023-03-29T07:19:51.109Z,403.8462
2023-03-29T07:20:52.594Z,408.7692
2023-03-29T07:21:54.014Z,402.0000
2023-03-29T07:22:55.405Z,397.8462
2023-03-29T07:23:56.820Z,409.0769
2023-03-29T07:24:58.244Z,410.0000
2023-03-29T07:25:59.649Z,406.3846
2023-03-29T07:27:04.486Z,411.6154
2023-03-29T07:28:02.499Z,417.9231
2023-03-29T07:29:03.925Z,419.3846
2023-03-29T07:30:05.348Z,417.0000
2023-03-29T07:31:06.814Z,421.6923
2023-03-29T07:32:08.290Z,421.0000
2023-03-29T07:33:09.782Z,420.4615
2023-03-29T07:34:11.134Z,428.3846
2023-03-29T07:35:12.529Z,425.3077
2023-03-29T07:36:13.993Z,425.8462
2023-03-29T07:37:15.371Z,423.9231
2023-03-29T07:38:16.828Z,418.9231
2023-03-29T07:39:18.206Z,427.0769
2023-03-29T07:40:19.639Z,422.0000
2023-03-29T07:41:21.050Z,422.6923
2023-03-29T07:42:22.493Z,428.0769
2023-03-29T07:43:23.902Z,427.3077
2023-03-29T07:44:25.333Z,429.2308
2023-03-29T07:45:28.587Z,431.4615
2023-03-29T07:46:28.225Z,437.4615
2023-03-29T07:47:29.649Z,432.3077
2023-03-29T07:48:31.024Z,430.0000
2023-03-29T07:49:32.464Z,438.0000
2023-03-29T07:50:33.877Z,434.9231
2023-03-29T07:51:35.315Z,436.2308
2023-03-29T07:52:36.735Z,442.4615
2023-03-29T07:53:38.174Z,441.6923
2023-03-29T07:54:39.600Z,444.8462
2023-03-29T07:55:41.001Z,445.1538
2023-03-29T07:56:42.449Z,446.3846
2023-03-29T07:57:43.857Z,466.6923
2023-03-29T07:58:45.297Z,476.1538
2023-03-29T07:59:46.723Z,493.4615
2023-03-29T08:00:48.151Z,490.3077
2023-03-29T08:01:49.567Z,500.3846
2023-03-29T08:02:51.025Z,532.0769
2023-03-29T08:03:52.550Z,523.3077
2023-03-29T08:04:54.032Z,494.9231
2023-03-29T08:05:55.283Z,475.8462
2023-03-29T08:06:56.695Z,474.2308
2023-03-29T08:07:58.125Z,475.8462
2023-03-29T08:08:59.554Z,490.3077
2023-03-29T08:10:01.001Z,508.8462
2023-03-29T08:11:02.585Z,522.0769
2023-03-29T08:12:03.822Z,378.4615
2023-03-29T08:13:05.257Z,353.6154
2023-03-29T08:14:06.710Z,618.3077
2023-03-29T08:15:08.194Z,462.0769
2023-03-29T08:16:09.542Z,416.0769
2023-03-29T08:17:11.050Z,414.2308
2023-03-29T08:18:12.470Z,433.6923
2023-03-29T08:19:13.810Z,591.0769
2023-03-29T08:20:15.249Z,569.5385
2023-03-29T08:21:16.665Z,567.3846
2023-03-29T08:22:18.102Z,570.7692
2023-03-29T08:23:19.538Z,567.7692
2023-03-29T08:24:21.174Z,564.1539
2023-03-29T08:25:22.383Z,565.2308
2023-03-29T08:26:23.803Z,567.3077
2023-03-29T08:27:25.214Z,574.5385
2023-03-29T08:28:26.684Z,632.6154
2023-03-29T08:29:28.082Z,598.0769
2023-03-29T08:30:29.519Z,499.0000
2023-03-29T08:31:31.004Z,409.5385
2023-03-29T08:32:32.383Z,240.6154
2023-03-29T08:33:33.809Z,182.1538
2023-03-29T08:34:35.205Z,104.8462
2023-03-29T08:35:36.662Z,124.8462
2023-03-29T08:36:38.060Z,278.2308
2023-03-29T08:37:39.491Z,175.8462
2023-03-29T08:38:40.986Z,243.7692
2023-03-29T08:39:42.359Z,252.4615
2023-03-29T08:40:43.761Z,273.7692
2023-03-29T08:41:45.171Z,279.3077
2023-03-29T08:42:46.596Z,284.6923
2023-03-29T08:43:48.050Z,292.2308
2023-03-29T08:44:49.470Z,306.3077
2023-03-29T08:45:51.236Z,317.0000
2023-03-29T08:46:52.358Z,320.4615
2023-03-29T08:47:53.818Z,317.0769
2023-03-29T08:48:55.197Z,320.0769
2023-03-29T08:49:56.597Z,318.6923
2023-03-29T08:50:58.022Z,320.1538
2023-03-29T08:51:59.451Z,318.9231
2023-03-29T08:53:00.866Z,321.4615
2023-03-29T08:54:02.326Z,321.6923
2023-03-29T08:55:03.732Z,320.6154
2023-03-29T08:56:05.201Z,324.1538
2023-03-29T08:57:06.589Z,329.6923
2023-03-29T08:58:08.004Z,325.8462
2023-03-29T08:59:09.483Z,327.1538
2023-03-29T09:00:10.867Z,329.1538
2023-03-29T09:01:12.344Z,333.3846
2023-03-29T09:02:13.749Z,333.7692
2023-03-29T09:03:15.213Z,332.7692
2023-03-29T09:04:16.605Z,330.6154
2023-03-29T09:05:18.049Z,335.3846
2023-03-29T09:06:19.454Z,330.3846
2023-03-29T09:07:20.889Z,335.3846
2023-03-29T09:08:22.302Z,338.4615
2023-03-29T09:09:23.750Z,336.1538
2023-03-29T09:10:25.183Z,343.1538
2023-03-29T09:11:26.627Z,333.4615
2023-03-29T09:12:28.013Z,337.8462
2023-03-29T09:13:29.535Z,340.7692
2023-03-29T09:14:30.873Z,340.3077
2023-03-29T09:15:32.391Z,343.5385
2023-03-29T09:16:33.764Z,345.6154
2023-03-29T09:17:35.186Z,343.1538
2023-03-29T09:18:36.632Z,344.7692
2023-03-29T09:19:38.030Z,344.5385
2023-03-29T09:20:39.516Z,348.4615
2023-03-29T09:21:40.872Z,345.6154
2023-03-29T09:22:42.313Z,344.3846
2023-03-29T09:23:43.744Z,351.0000
2023-03-29T09:24:45.177Z,350.3846
2023-03-29T09:25:53.554Z,344.1538
2023-03-29T09:26:48.041Z,356.1667
2023-03-29T09:27:49.461Z,351.4615
2023-03-29T09:28:50.896Z,357.6154
2023-03-29T09:29:52.299Z,353.2308
2023-03-29T09:30:53.750Z,351.6154
2023-03-29T09:31:55.153Z,348.5385
2023-03-29T09:32:56.652Z,354.6154
2023-03-29T09:33:57.994Z,357.7692
2023-03-29T09:34:59.444Z,355.1538
2023-03-29T09:36:00.899Z,362.2308
2023-03-29T09:37:02.272Z,358.0000
2023-03-29T09:38:03.702Z,356.3846
2023-03-29T09:39:05.157Z,360.8462
2023-03-29T09:40:06.568Z,364.8462
2023-03-29T09:41:07.997Z,358.9231
2023-03-29T09:42:09.494Z,323.5385
2023-03-29T09:43:10.853Z,274.3846
2023-03-29T09:44:20.773Z,302.1538
2023-03-29T09:45:13.718Z,307.5000
2023-03-29T09:46:15.216Z,313.1538
2023-03-29T09:47:16.547Z,313.0769
2023-03-29T09:48:17.957Z,304.2308
2023-03-29T09:49:19.409Z,315.0000
2023-03-29T09:50:30.960Z,324.4615
2023-03-29T09:51:22.342Z,345.2500
2023-03-29T09:52:23.690Z,363.7692
2023-03-29T09:53:25.126Z,360.6154
2023-03-29T09:54:26.534Z,350.0769
2023-03-29T09:55:27.967Z,354.2308
2023-03-29T09:56:29.400Z,360.3077
2023-03-29T09:57:30.943Z,366.5385
2023-03-29T09:58:32.239Z,370.6154
2023-03-29T09:59:33.684Z,364.6923
2023-03-29T10:00:35.105Z,375.5385
2023-03-29T10:01:36.553Z,366.4615
2023-03-29T10:02:38.036Z,385.9231
2023-03-29T10:03:39.404Z,393.8462
2023-03-29T10:04:40.881Z,390.9231
2023-03-29T10:05:42.245Z,393.0769
2023-03-29T10:06:43.676Z,413.6923
2023-03-29T10:07:45.149Z,416.0000
2023-03-29T10:08:46.522Z,423.3077
2023-03-29T10:09:47.980Z,415.3077
2023-03-29T10:10:49.392Z,421.1538
2023-03-29T10:11:50.875Z,421.0000
2023-03-29T10:12:52.256Z,424.8462
2023-03-29T10:13:53.700Z,435.8462
2023-03-29T10:14:55.193Z,440.4615
2023-03-29T10:15:56.549Z,442.8462
2023-03-29T10:16:58.046Z,449.2308
2023-03-29T10:17:59.607Z,453.0000
2023-03-29T10:19:00.932Z,451.8462
2023-03-29T10:20:04.217Z,458.6923
2023-03-29T10:21:04.146Z,466.9231
2023-03-29T10:22:05.223Z,461.0769
2023-03-29T10:23:06.648Z,466.6154
2023-03-29T10:24:08.071Z,480.0000
2023-03-29T10:25:09.491Z,483.7692
2023-03-29T10:26:10.910Z,499.6154
2023-03-29T10:27:12.325Z,531.2308
2023-03-29T10:28:13.764Z,537.7692
2023-03-29T10:29:15.169Z,509.2308
2023-03-29T10:30:16.626Z,500.6923
2023-03-29T10:31:18.075Z,505.9231
2023-03-29T10:32:19.483Z,510.0769
2023-03-29T10:33:20.930Z,519.9231
2023-03-29T10:34:22.319Z,539.3077
2023-03-29T10:35:23.742Z,569.6923
2023-03-29T10:36:25.173Z,557.5385
2023-03-29T10:37:26.613Z,550.7692
2023-03-29T10:38:28.037Z,558.0000
2023-03-29T10:39:29.446Z,547.6154
2023-03-29T10:40:30.947Z,555.1539
2023-03-29T10:41:32.305Z,556.0769
2023-03-29T10:42:33.754Z,555.8461
2023-03-29T10:43:35.170Z,567.1539
2023-03-29T10:44:36.638Z,599.6923
2023-03-29T10:45:38.043Z,603.0000
2023-03-29T10:46:39.496Z,593.0769
2023-03-29T10:47:40.930Z,586.2308
2023-03-29T10:48:42.309Z,584.0000
2023-03-29T10:49:43.741Z,587.3077
2023-03-29T10:50:45.165Z,609.9231
2023-03-29T10:51:46.593Z,628.2308
2023-03-29T10:52:48.022Z,645.2308
2023-03-29T10:53:49.434Z,672.1539
2023-03-29T10:54:50.891Z,678.1539
2023-03-29T10:55:52.309Z,706.9231
2023-03-29T10:56:53.739Z,689.0769
2023-03-29T10:57:55.182Z,739.2308
2023-03-29T10:58:56.625Z,826.4615
2023-03-29T10:59:58.042Z,845.4615
2023-03-29T11:00:59.491Z,817.8461
2023-03-29T11:02:00.910Z,825.6923
2023-03-29T11:03:02.377Z,844.7692
2023-03-29T11:04:03.873Z,867.6154
2023-03-29T11:05:05.211Z,894.8461
2023-03-29T11:06:06.597Z,921.2308
2023-03-29T11:07:08.062Z,987.1539
2023-03-29T11:08:09.486Z,1016.6154
2023-03-29T11:09:10.886Z,1014.3846
2023-03-29T11:10:12.369Z,1092.9231
2023-03-29T11:11:13.739Z,1129.8462
2023-03-29T11:12:16.423Z,1119.5385
2023-03-29T11:13:16.588Z,1138.4615
2023-03-29T11:14:18.032Z,1150.0000
2023-03-29T11:15:19.445Z,1184.0769
2023-03-29T11:16:20.998Z,1217.9231
2023-03-29T11:17:22.390Z,1261.4615
2023-03-29T11:18:23.739Z,1260.9231
2023-03-29T11:19:25.177Z,1216.8462
2023-03-29T11:20:26.573Z,1204.6154
2023-03-29T11:21:28.069Z,1210.2307
2023-03-29T11:22:29.431Z,1151.5385
2023-03-29T11:23:30.866Z,1128.4615
2023-03-29T11:24:32.286Z,1108.6154
2023-03-29T11:25:33.709Z,1144.1538
2023-03-29T11:26:35.205Z,1136.4615
2023-03-29T11:27:36.582Z,1206.4615
2023-03-29T11:28:37.988Z,1223.0000
2023-03-29T11:29:39.432Z,1234.2307
2023-03-29T11:30:40.845Z,1259.0000
2023-03-29T11:31:42.344Z,1257.3077
2023-03-29T11:32:43.725Z,1290.6154
2023-03-29T11:33:45.157Z,1478.4615
2023-03-29T11:34:46.530Z,1500.5385
2023-03-29T11:35:48.131Z,1514.0769
2023-03-29T11:36:49.389Z,1492.8462
2023-03-29T11:37:50.825Z,1502.0769
2023-03-29T11:38:52.242Z,1510.7693
2023-03-29T11:39:53.690Z,1498.0769
2023-03-29T11:40:55.094Z,1518.8462
2023-03-29T11:41:56.564Z,1511.1538
2023-03-29T11:42:57.950Z,1532.3846
2023-03-29T11:43:59.375Z,1518.9231
2023-03-29T11:45:00.810Z,1510.5385
2023-03-29T11:46:02.277Z,1522.3077
2023-03-29T11:47:03.741Z,1526.8462
2023-03-29T11:48:05.176Z,1541.8462
2023-03-29T11:49:06.518Z,1523.1538
2023-03-29T11:50:07.945Z,1524.2307
2023-03-29T11:51:09.365Z,1538.7693
2023-03-29T11:52:10.797Z,1537.4615
2023-03-29T11:53:12.241Z,1543.2307
2023-03-29T11:54:13.641Z,1547.2307
2023-03-29T11:55:15.069Z,1569.2307
2023-03-29T11:56:16.491Z,1607.3846
2023-03-29T11:57:17.999Z,1586.9231